Time;durP1;ratioP1;P1;durP2;ratioP2;P2;SDS_P1;SDS_P2;PMS_P1;PMS_P2;Temp;Humidity;BMP_temperature;BMP_pressure;BME280_temperature;BME280_humidity;BME280_pressure;Samples;Min_cycle;Max_cycle;Signal;HPM_P1;HPM_P2
2024/01/30 00:00:37;;;;;;;53.00;24.10;;;;;;;-147.86;100.00;37872.65;105268;1262;63971;-48
2024/01/30 00:03:06;;;;;;;50.10;23.90;;;;;;;-147.86;100.00;38055.27;105217;1263;73241;-48
2024/01/30 00:05:34;;;;;;;50.30;23.30;;;;;;;-147.86;100.00;38357.18;105326;1262;248514;-49
2024/01/30 00:08:03;;;;;;;45.50;21.90;;;;;;;-147.86;100.00;38586.37;105586;1261;59463;-47
2024/01/30 00:10:31;;;;;;;53.80;23.50;;;;;;;-147.86;100.00;38880.11;105485;1262;72208;-47
2024/01/30 00:12:59;;;;;;;45.00;21.70;;;;;;;-147.86;100.00;39129.27;105483;1259;64116;-46
2024/01/30 00:15:27;;;;;;;45.70;23.20;;;;;;;-147.86;100.00;39313.13;105419;1260;71566;-48
2024/01/30 00:17:54;;;;;;;54.60;22.50;;;;;;;-147.86;100.00;39499.73;105282;1259;59784;-46
2024/01/30 00:20:22;;;;;;;52.50;22.80;;;;;;;-147.86;100.00;39679.69;105202;1260;59782;-48
2024/01/30 00:22:50;;;;;;;44.80;20.80;;;;;;;-147.86;100.00;40009.51;105521;1257;71854;-46
2024/01/30 00:25:19;;;;;;;52.00;22.50;;;;;;;-147.86;100.00;40308.84;105525;1257;64401;-48
2024/01/30 00:27:47;;;;;;;44.90;22.60;;;;;;;-147.86;100.00;40546.35;105486;1258;72612;-48
2024/01/30 00:50:43;;;;;;;46.80;22.30;;;;;;;-147.86;100.00;52109.68;102638;1292;600085;-47
2024/01/30 00:53:11;;;;;;;51.80;23.40;;;;;;;-147.86;100.00;43233.62;105186;1262;59364;-48
2024/01/30 00:55:39;;;;;;;48.90;21.00;;;;;;;-147.86;100.00;43405.92;105222;1267;59321;-48
2024/01/30 00:58:06;;;;;;;47.70;22.90;;;;;;;-147.86;100.00;43586.05;105124;1267;71085;-47
2024/01/30 01:00:34;;;;;;;50.00;22.70;;;;;;;-147.86;100.00;43750.54;105146;1266;65634;-46
2024/01/30 01:03:02;;;;;;;47.20;23.30;;;;;;;-147.86;100.00;43918.16;105133;1266;72621;-47
2024/01/30 01:05:31;;;;;;;48.40;21.90;;;;;;;-147.86;100.00;44083.05;105088;1260;235795;-47
2024/01/30 01:07:58;;;;;;;54.90;23.20;;;;;;;-147.86;100.00;44243.24;105592;1260;59267;-48
2024/01/30 01:10:28;;;;;;;43.50;21.80;;;;;;;-147.86;100.00;44424.98;105577;1260;71120;-48
2024/01/30 01:12:55;;;;;;;53.00;24.90;;;;;;;-147.86;100.00;44580.88;105534;1259;65321;-46
2024/01/30 01:15:25;;;;;;;51.50;24.30;;;;;;;-147.86;100.00;44801.43;105598;1261;71393;-50
2024/01/30 01:17:56;;;;;;;55.50;24.60;;;;;;;-147.86;100.00;45019.24;105519;1260;59752;-49
2024/01/30 01:20:24;;;;;;;48.20;22.80;;;;;;;-147.86;100.00;45246.46;105608;1261;60072;-48
2024/01/30 01:22:52;;;;;;;53.20;23.30;;;;;;;-147.86;100.00;45518.76;105528;1261;73019;-46
2024/01/30 01:25:20;;;;;;;54.20;24.20;;;;;;;-147.86;100.00;45770.70;105585;1256;64659;-48
2024/01/30 01:27:51;;;;;;;56.80;24.90;;;;;;;-147.86;100.00;46015.21;109145;1256;71824;-46
2024/01/30 01:30:21;;;;;;;57.80;25.80;;;;;;;-147.86;100.00;46236.61;109149;1255;61925;-47
2024/01/30 01:32:57;;;;;;;58.30;25.60;;;;;;;-147.86;100.00;46474.88;109153;1256;58781;-45
2024/01/30 01:35:26;;;;;;;53.40;25.30;;;;;;;-147.86;100.00;46650.07;109153;1256;71766;-45
2024/01/30 01:37:55;;;;;;;51.30;23.20;;;;;;;-147.86;100.00;46922.85;109136;1256;65168;-48
2024/01/30 01:40:23;;;;;;;47.00;23.20;;;;;;;-147.86;100.00;47181.15;109172;1256;71557;-47
2024/01/30 01:42:52;;;;;;;48.70;23.90;;;;;;;-147.86;100.00;47438.68;109131;1256;60876;-46
2024/01/30 01:48:45;;;;;;;53.10;23.60;;;;;;;-147.86;100.00;56499.74;102806;1290;600292;-47
2024/01/30 01:51:13;;;;;;;55.60;23.60;;;;;;;-147.86;100.00;48344.30;105167;1264;59372;-47
2024/01/30 01:53:41;;;;;;;50.00;23.50;;;;;;;-147.86;100.00;48649.75;105187;1268;59275;-46
2024/01/30 01:56:08;;;;;;;51.30;24.20;;;;;;;-147.86;100.00;48908.95;105613;1256;70979;-46
2024/01/30 01:58:36;;;;;;;53.00;23.70;;;;;;;-147.86;100.00;49178.75;105678;1254;64049;-49
2024/01/30 02:01:04;;;;;;;50.20;23.20;;;;;;;-147.86;100.00;49416.41;105690;1258;71399;-48
2024/01/30 02:03:32;;;;;;;48.80;22.70;;;;;;;-147.86;100.00;49647.03;105690;1257;200111;-45
2024/01/30 02:06:00;;;;;;;57.40;24.90;;;;;;;-147.86;100.00;49849.42;105738;1260;59385;-47
2024/01/30 02:08:28;;;;;;;46.30;22.20;;;;;;;-147.86;100.00;50025.93;105675;1260;70716;-48
2024/01/30 02:10:56;;;;;;;49.50;22.50;;;;;;;-147.86;100.00;50227.55;105991;1256;65176;-46
2024/01/30 02:13:23;;;;;;;57.60;24.90;;;;;;;-147.86;100.00;50435.46;105840;1257;72630;-47
2024/01/30 02:15:51;;;;;;;56.10;25.60;;;;;;;-147.86;100.00;50590.03;105844;1257;59665;-47
2024/01/30 02:18:20;;;;;;;53.10;25.20;;;;;;;-147.86;100.00;50702.62;105891;1257;59664;-46
2024/01/30 02:20:48;;;;;;;59.10;24.80;;;;;;;-147.86;100.00;50732.05;105917;1251;70810;-49
2024/01/30 02:23:16;;;;;;;54.20;24.20;;;;;;;-147.86;100.00;50792.86;105727;1255;64010;-46
2024/01/30 02:25:47;;;;;;;55.10;24.80;;;;;;;-147.86;100.00;50943.52;105852;1255;73083;-48
2024/01/30 02:28:15;;;;;;;55.40;26.10;;;;;;;-147.86;100.00;51058.48;105842;1255;59656;-49
2024/01/30 02:30:43;;;;;;;62.70;25.80;;;;;;;-147.86;100.00;51208.75;105903;1254;59923;-47
2024/01/30 02:33:15;;;;;;;58.10;23.90;;;;;;;-147.86;100.00;51375.51;105893;1253;71774;-48
2024/01/30 02:35:43;;;;;;;57.80;25.20;;;;;;;-147.86;100.00;51450.07;105891;1254;65241;-46
2024/01/30 02:38:11;;;;;;;49.70;21.90;;;;;;;-147.86;100.00;51560.72;105858;1255;72588;-47
2024/01/30 02:40:39;;;;;;;43.70;20.60;;;;;;;-147.86;100.00;51685.12;105856;1253;59694;-47
2024/01/30 02:43:07;;;;;;;56.20;24.90;;;;;;;-147.86;100.00;51797.35;105884;1257;59612;-49
2024/01/30 02:45:34;;;;;;;50.10;25.00;;;;;;;-147.86;100.00;51950.79;105861;1254;71708;-45
2024/01/30 02:48:03;;;;;;;49.60;23.50;;;;;;;-147.86;100.00;52097.57;105655;1259;62927;-47
2024/01/30 02:50:31;;;;;;;52.20;22.80;;;;;;;-147.86;100.00;52169.79;105703;1254;71375;-46
2024/01/30 02:52:59;;;;;;;44.00;21.10;;;;;;;-147.86;100.00;52281.64;105688;1260;59736;-47
2024/01/30 02:55:27;;;;;;;54.10;24.00;;;;;;;-147.86;100.00;52409.20;105717;1258;60846;-46
2024/01/30 02:57:55;;;;;;;52.80;24.50;;;;;;;-147.86;100.00;52669.04;105654;1254;72556;-49
2024/01/30 03:00:23;;;;;;;49.80;24.00;;;;;;;-147.86;100.00;52892.77;105720;1259;64018;-47
2024/01/30 03:02:51;;;;;;;51.70;24.00;;;;;;;-147.86;100.00;53091.41;105692;1256;71470;-48
2024/01/30 03:05:19;;;;;;;48.00;22.50;;;;;;;-147.86;100.00;53192.29;105684;1260;59650;-48
2024/01/30 03:07:48;;;;;;;48.50;23.40;;;;;;;-147.86;100.00;53346.97;105709;1260;59653;-47
2024/01/30 03:10:15;;;;;;;47.10;22.70;;;;;;;-147.86;100.00;53481.63;105711;1254;71739;-46
2024/01/30 03:12:43;;;;;;;51.80;23.50;;;;;;;-147.86;100.00;53630.03;105649;1259;63994;-46
2024/01/30 03:15:11;;;;;;;49.20;23.70;;;;;;;-147.86;100.00;53725.04;105650;1254;71915;-46
2024/01/30 03:17:40;;;;;;;47.90;22.60;;;;;;;-147.86;100.00;53830.66;105670;1259;59745;-47
2024/01/30 03:20:10;;;;;;;49.00;22.00;;;;;;;-147.86;100.00;53908.01;105719;1258;60035;-47
2024/01/30 03:22:38;;;;;;;42.00;20.60;;;;;;;-147.86;100.00;53983.79;105715;1254;71812;-46
2024/01/30 03:25:06;;;;;;;43.90;21.60;;;;;;;-147.86;100.00;54070.56;105645;1259;63901;-46
2024/01/30 03:27:34;;;;;;;44.40;22.30;;;;;;;-147.86;100.00;54153.42;105697;1257;71410;-46
2024/01/30 03:30:02;;;;;;;52.20;23.50;;;;;;;-147.86;100.00;54298.70;105681;1254;60067;-47
2024/01/30 03:32:29;;;;;;;47.50;21.90;;;;;;;-147.86;100.00;54450.28;105724;1259;59593;-46
2024/01/30 03:34:58;;;;;;;40.60;18.80;;;;;;;-147.86;100.00;54537.06;105662;1254;71756;-45
2024/01/30 03:37:26;;;;;;;49.60;19.90;;;;;;;-147.86;100.00;54499.36;105687;1255;64002;-47
2024/01/30 03:39:54;;;;;;;43.50;20.80;;;;;;;-147.86;100.00;54585.76;105632;1259;71386;-47
2024/01/30 03:42:22;;;;;;;55.00;25.00;;;;;;;-147.86;100.00;54646.63;105643;1260;59692;-45
2024/01/30 03:44:53;;;;;;;59.60;26.60;;;;;;;-147.86;100.00;54671.76;105682;1260;59647;-46
2024/01/30 03:47:21;;;;;;;54.70;24.70;;;;;;;-147.86;100.00;54709.07;105662;1260;73021;-48
2024/01/30 03:49:49;;;;;;;59.50;24.60;;;;;;;-147.86;100.00;54905.44;105689;1253;64364;-47
2024/01/30 03:52:17;;;;;;;56.50;24.50;;;;;;;-147.86;100.00;55057.82;105694;1254;72643;-47
2024/01/30 03:54:44;;;;;;;52.00;24.00;;;;;;;-147.86;100.00;55193.72;105660;1256;59743;-49
2024/01/30 03:57:12;;;;;;;56.50;24.20;;;;;;;-147.86;100.00;55309.58;105622;1259;59685;-48
2024/01/30 03:59:42;;;;;;;53.00;23.80;;;;;;;-147.86;100.00;55386.57;105668;1254;71680;-46
2024/01/30 04:02:11;;;;;;;56.10;24.20;;;;;;;-147.86;100.00;55350.04;105684;1254;65258;-48
2024/01/30 04:04:39;;;;;;;52.50;23.70;;;;;;;-147.86;100.00;55419.56;105748;1254;71371;-47
2024/01/30 04:07:07;;;;;;;51.90;23.60;;;;;;;-147.86;100.00;55441.95;105669;1260;59777;-46
2024/01/30 04:09:35;;;;;;;62.40;26.20;;;;;;;-147.86;100.00;55480.45;105625;1259;59595;-48
2024/01/30 04:12:03;;;;;;;54.30;24.60;;;;;;;-147.86;100.00;55540.54;105676;1259;73343;-47
2024/01/30 04:14:31;;;;;;;52.00;23.10;;;;;;;-147.86;100.00;55653.68;105668;1260;63915;-46
2024/01/30 04:16:59;;;;;;;57.00;24.80;;;;;;;-147.86;100.00;55733.41;105684;1254;71350;-47
2024/01/30 04:19:26;;;;;;;57.20;23.90;;;;;;;-147.86;100.00;55782.12;105653;1254;59777;-47
2024/01/30 04:21:54;;;;;;;56.20;24.50;;;;;;;-147.86;100.00;55820.23;105733;1260;59831;-46
2024/01/30 04:24:22;;;;;;;58.60;25.70;;;;;;;-147.86;100.00;55773.09;105701;1254;71727;-47
2024/01/30 04:26:49;;;;;;;55.70;25.50;;;;;;;-147.86;100.00;55766.80;105656;1255;64616;-47
2024/01/30 04:29:17;;;;;;;58.40;24.90;;;;;;;-147.86;100.00;55771.91;105658;1254;71363;-45
2024/01/30 04:31:45;;;;;;;56.90;25.10;;;;;;;-147.86;100.00;55735.77;105724;1254;60109;-46
2024/01/30 04:34:13;;;;;;;61.50;25.30;;;;;;;-147.86;100.00;55722.41;105700;1257;60250;-46
2024/01/30 04:36:45;;;;;;;59.50;24.50;;;;;;;-147.86;100.00;55803.34;105727;1254;71745;-48
2024/01/30 04:39:13;;;;;;;59.80;23.90;;;;;;;-147.86;100.00;55819.44;105714;1254;64316;-47
2024/01/30 04:41:40;;;;;;;60.50;25.00;;;;;;;-147.86;100.00;55857.94;105664;1254;72660;-47
2024/01/30 04:44:08;;;;;;;55.40;25.40;;;;;;;-147.86;100.00;56031.97;105644;1255;60817;-46
2024/01/30 04:46:35;;;;;;;53.10;24.00;;;;;;;-147.86;100.00;56165.93;105664;1260;59633;-48
2024/01/30 04:49:03;;;;;;;58.20;24.70;;;;;;;-147.86;100.00;56251.18;105648;1260;72129;-47
2024/01/30 04:52:56;;;;;;;61.10;25.10;;;;;;;-147.86;100.00;68212.53;102756;1290;600323;-49
2024/01/30 04:55:24;;;;;;;47.80;23.50;;;;;;;-147.86;100.00;57876.04;105242;1261;60781;-46
2024/01/30 04:57:53;;;;;;;55.00;23.70;;;;;;;-147.86;100.00;57445.69;105229;1265;59413;-46
2024/01/30 05:00:21;;;;;;;54.20;23.80;;;;;;;-147.86;100.00;56789.45;105236;1262;72189;-45
2024/01/30 05:02:49;;;;;;;59.80;24.10;;;;;;;-147.86;100.00;56314.43;105247;1266;65447;-48
2024/01/30 05:05:17;;;;;;;57.00;24.50;;;;;;;-147.86;100.00;56004.07;105284;1266;72348;-46
2024/01/30 05:07:45;;;;;;;47.40;23.50;;;;;;;-147.86;100.00;55890.54;105351;1263;223116;-47
2024/01/30 05:10:13;;;;;;;49.40;24.10;;;;;;;-147.86;100.00;55714.55;105577;1263;59317;-47
2024/01/30 05:12:41;;;;;;;45.40;23.20;;;;;;;-147.86;100.00;55542.51;109104;1258;70988;-46
2024/01/30 05:15:09;;;;;;;48.90;23.90;;;;;;;-147.86;100.00;55550.76;109466;1254;65311;-44
2024/01/30 05:17:37;;;;;;;54.60;23.10;;;;;;;-147.86;100.00;55571.97;109482;1254;72712;-45
2024/01/30 05:20:06;;;;;;;47.20;22.90;;;;;;;-147.86;100.00;55544.86;109475;1254;59220;-45
2024/01/30 05:22:33;;;;;;;45.10;21.00;;;;;;;-147.86;100.00;55458.45;109474;1258;60051;-46
2024/01/30 05:25:01;;;;;;;50.00;23.60;;;;;;;-147.86;100.00;55446.66;109477;1254;73070;-44
2024/01/30 05:27:29;;;;;;;47.80;22.30;;;;;;;-147.86;100.00;55527.97;109483;1254;64375;-46
2024/01/30 05:29:56;;;;;;;48.20;22.40;;;;;;;-147.86;100.00;55613.61;109439;1254;71422;-45
2024/01/30 05:32:24;;;;;;;49.50;24.80;;;;;;;-147.86;100.00;55762.09;109446;1254;58013;-45
2024/01/30 05:34:51;;;;;;;43.70;21.70;;;;;;;-147.86;100.00;55822.98;109484;1254;60124;-43
2024/01/30 05:37:19;;;;;;;39.70;20.20;;;;;;;-147.86;100.00;55927.47;109472;1253;74106;-44
2024/01/30 05:39:47;;;;;;;48.30;22.10;;;;;;;-147.86;100.00;56036.68;109371;1254;64290;-45
2024/01/30 05:42:16;;;;;;;41.90;19.80;;;;;;;-147.86;100.00;56083.43;109492;1254;71025;-48
2024/01/30 05:44:44;;;;;;;54.10;22.30;;;;;;;-147.86;100.00;56148.65;109444;1254;60821;-44
2024/01/30 05:50:10;;;;;;;;;;;;;;;-147.86;100.00;63644.80;102948;1292;601038;-45
2024/01/30 05:52:37;;;;;;;51.60;22.00;;;;;;;-147.86;100.00;56542.31;105140;1269;59273;-45
2024/01/30 05:55:06;;;;;;;48.40;22.40;;;;;;;-147.86;100.00;56613.43;105056;1270;59637;-45
2024/01/30 05:57:34;;;;;;;44.00;22.00;;;;;;;-147.86;100.00;56664.51;105172;1264;69994;-48
2024/01/30 06:00:02;;;;;;;49.50;23.70;;;;;;;-147.86;100.00;56776.09;105021;1264;64302;-46
2024/01/30 06:02:31;;;;;;;72.50;33.50;;;;;;;-147.86;100.00;56849.57;105101;1269;71726;-46
2024/01/30 06:04:59;;;;;;;51.60;24.50;;;;;;;-147.86;100.00;56904.19;105073;1264;242405;-48
2024/01/30 06:07:27;;;;;;;50.70;24.00;;;;;;;-147.86;100.00;56984.35;105214;1266;59545;-48
2024/01/30 06:10:00;;;;;;;48.20;24.10;;;;;;;-147.86;100.00;56970.59;105237;1261;70946;-44
2024/01/30 06:12:28;;;;;;;52.30;24.50;;;;;;;-147.86;100.00;57037.79;105254;1266;65325;-45
2024/01/30 06:14:56;;;;;;;55.50;25.50;;;;;;;-147.86;100.00;57170.21;105229;1261;72591;-48
2024/01/30 06:17:24;;;;;;;48.30;23.70;;;;;;;-147.86;100.00;57236.63;105226;1263;59805;-45
2024/01/30 06:19:52;;;;;;;42.00;21.10;;;;;;;-147.86;100.00;57261.77;105207;1265;59729;-47
2024/01/30 06:22:19;;;;;;;52.60;23.00;;;;;;;-147.86;100.00;57302.64;105221;1261;71725;-48
2024/01/30 06:24:50;;;;;;;48.00;23.80;;;;;;;-147.86;100.00;57472.41;105219;1267;63923;-47
2024/01/30 06:27:18;;;;;;;50.10;23.90;;;;;;;-147.86;100.00;57512.89;105267;1266;72622;-46
2024/01/30 06:29:46;;;;;;;47.30;22.30;;;;;;;-147.86;100.00;57571.45;105220;1264;59753;-46
2024/01/30 06:32:14;;;;;;;54.90;21.90;;;;;;;-147.86;100.00;57603.28;105223;1266;59563;-48
2024/01/30 06:34:44;;;;;;;51.00;24.50;;;;;;;-147.86;100.00;57636.29;105210;1260;73129;-49
2024/01/30 06:37:12;;;;;;;45.60;22.80;;;;;;;-147.86;100.00;57585.99;105229;1266;64026;-47
2024/01/30 06:39:39;;;;;;;53.10;22.80;;;;;;;-147.86;100.00;57624.89;105231;1264;71363;-45
2024/01/30 06:42:07;;;;;;;45.30;22.40;;;;;;;-147.86;100.00;57517.60;105178;1264;59713;-45
2024/01/30 06:44:35;;;;;;;47.50;22.20;;;;;;;-147.86;100.00;57562.41;105236;1261;59760;-47
2024/01/30 06:47:03;;;;;;;51.00;22.30;;;;;;;-147.86;100.00;57637.48;105217;1264;72962;-47
2024/01/30 06:49:31;;;;;;;44.10;22.20;;;;;;;-147.86;100.00;57623.71;105040;1264;62919;-49
2024/01/30 06:51:59;;;;;;;43.40;23.40;;;;;;;-147.86;100.00;57636.68;105027;1267;71372;-45
2024/01/30 06:54:27;;;;;;;44.20;22.70;;;;;;;-147.86;100.00;57725.11;104953;1267;60059;-47
2024/01/30 06:56:54;;;;;;;42.00;21.00;;;;;;;-147.86;100.00;57788.78;104884;1269;59574;-47
2024/01/30 06:59:22;;;;;;;43.10;20.90;;;;;;;-147.86;100.00;57818.65;104958;1266;71767;-47
2024/01/30 07:01:50;;;;;;;42.50;21.30;;;;;;;-147.86;100.00;57742.41;104900;1269;65135;-45
2024/01/30 07:04:18;;;;;;;45.60;20.80;;;;;;;-147.86;100.00;57784.46;104963;1264;72618;-48
2024/01/30 07:06:46;;;;;;;39.40;21.70;;;;;;;-147.86;100.00;57894.90;104913;1267;59791;-49
2024/01/30 07:09:14;;;;;;;37.90;20.30;;;;;;;-147.86;100.00;57944.42;104959;1269;59657;-47
2024/01/30 07:11:41;;;;;;;42.30;20.30;;;;;;;-147.86;100.00;57911.80;104951;1264;71848;-47
2024/01/30 07:14:09;;;;;;;36.20;19.00;;;;;;;-147.86;100.00;57906.69;104953;1266;63921;-48
2024/01/30 07:16:37;;;;;;;39.40;20.00;;;;;;;-147.86;100.00;58012.02;104900;1267;71611;-46
2024/01/30 07:19:05;;;;;;;38.70;18.80;;;;;;;-147.86;100.00;57929.49;104898;1267;60847;-47
2024/01/30 07:21:33;;;;;;;40.30;19.30;;;;;;;-147.86;100.00;57872.89;104958;1266;59679;-48
2024/01/30 07:24:01;;;;;;;34.80;18.50;;;;;;;-147.86;100.00;57827.69;105019;1263;71808;-48
2024/01/30 07:26:29;;;;;;;39.90;20.10;;;;;;;-147.86;100.00;57686.20;104925;1264;63937;-48
2024/01/30 07:28:57;;;;;;;41.20;19.90;;;;;;;-147.86;100.00;57618.21;104890;1267;72695;-46
2024/01/30 07:31:25;;;;;;;42.10;20.10;;;;;;;-147.86;100.00;57658.70;104926;1263;59902;-47
2024/01/30 07:33:54;;;;;;;37.50;19.30;;;;;;;-147.86;100.00;57594.24;104895;1264;60097;-45
2024/01/30 07:36:22;;;;;;;34.40;17.80;;;;;;;-147.86;100.00;57496.77;104912;1263;71767;-48
2024/01/30 07:38:52;;;;;;;37.20;19.20;;;;;;;-147.86;100.00;57426.43;104917;1264;65261;-49
2024/01/30 07:41:19;;;;;;;40.70;20.00;;;;;;;-147.86;100.00;57404.43;104962;1269;71712;-46
2024/01/30 07:43:47;;;;;;;40.70;19.90;;;;;;;-147.86;100.00;57385.55;104908;1266;59691;-48
2024/01/30 07:46:15;;;;;;;44.50;20.20;;;;;;;-147.86;100.00;57346.66;104911;1264;59711;-47
2024/01/30 07:48:42;;;;;;;40.60;20.00;;;;;;;-147.86;100.00;57327.40;104879;1267;72110;-46
2024/01/30 07:51:10;;;;;;;41.10;20.70;;;;;;;-147.86;100.00;57308.93;104938;1269;65153;-49
2024/01/30 07:53:38;;;;;;;38.60;18.40;;;;;;;-147.86;100.00;57222.87;104984;1266;71882;-50
2024/01/30 07:56:07;;;;;;;33.10;17.00;;;;;;;-147.86;100.00;57106.16;104983;1266;59802;-46
2024/01/30 07:58:35;;;;;;;33.70;19.00;;;;;;;-147.86;100.00;56934.04;105096;1267;60025;-48
2024/01/30 08:01:03;;;;;;;32.50;18.90;;;;;;;-147.86;100.00;56873.54;104957;1269;71838;-47
2024/01/30 08:03:31;;;;;;;38.10;18.20;;;;;;;-147.86;100.00;56788.66;104898;1269;65424;-47
2024/01/30 08:05:59;;;;;;;31.60;17.20;;;;;;;-147.86;100.00;56595.35;104818;1270;71432;-47
2024/01/30 08:08:26;;;;;;;35.70;17.40;;;;;;;-147.86;100.00;56295.57;104919;1269;63284;-46
2024/01/30 08:10:54;;;;;;;30.70;16.60;;;;;;;-147.86;100.00;55952.21;104906;1267;62955;-49
2024/01/30 08:13:23;;;;;;;37.30;16.50;;;;;;;-147.86;100.00;55793.90;105193;1266;71513;-46
2024/01/30 08:15:51;;;;;;;32.50;17.20;;;;;;;-147.86;100.00;55475.33;105510;1257;67564;-48
2024/01/30 08:18:19;;;;;;;28.30;15.90;;;;;;;-147.86;100.00;55124.98;105511;1263;71378;-46
2024/01/30 08:20:46;;;;;;;27.40;15.40;;;;;;;-147.86;100.00;54806.46;105460;1262;60882;-47
2024/01/30 08:23:14;;;;;;;27.10;15.20;;;;;;;-147.86;100.00;54248.82;105483;1263;59628;-46
2024/01/30 08:25:42;;;;;;;28.00;16.00;;;;;;;-147.86;100.00;53613.14;105467;1257;73014;-48
2024/01/30 08:28:11;;;;;;;31.30;17.00;;;;;;;-147.86;100.00;52842.13;105435;1262;66664;-48
2024/01/30 08:30:39;;;;;;;27.20;15.90;;;;;;;-147.86;100.00;51918.61;105323;1259;71194;-49
2024/01/30 08:33:08;;;;;;;26.60;14.80;;;;;;;-147.86;100.00;50816.01;105242;1258;62753;-47
2024/01/30 08:35:36;;;;;;;29.30;14.80;;;;;;;-147.86;100.00;49539.18;105521;1263;59698;-46
2024/01/30 08:38:04;;;;;;;30.60;14.20;;;;;;;-147.86;100.00;48088.29;105457;1263;72889;-45
2024/01/30 08:40:32;;;;;;;21.70;11.70;;;;;;;-147.86;100.00;46414.95;105493;1258;64060;-50
2024/01/30 08:43:00;;;;;;;19.50;11.90;;;;;;;-147.86;100.00;44208.04;105458;1263;71370;-51
2024/01/30 08:45:28;;;;;;;16.10;9.50;;;;;;;-147.86;100.00;41423.47;105542;1259;60921;-50
2024/01/30 08:47:56;;;;;;;17.90;9.30;;;;;;;-147.86;100.00;37717.20;105504;1262;59738;-50
2024/01/30 08:50:24;;;;;;;15.10;9.00;;;;;;;-147.86;100.00;32674.34;105629;1258;73128;-52
2024/01/30 08:52:52;;;;;;;13.30;8.60;;;;;;;-147.86;100.00;26238.10;105589;1263;64286;-54
2024/01/30 08:55:20;;;;;;;11.10;7.50;;;;;;;-147.86;100.00;17775.44;105495;1255;73548;-54
2024/01/30 08:57:47;;;;;;;10.20;7.70;;;;;;;-147.86;100.00;8484.11;105565;1257;60908;-53
2024/01/30 09:00:16;;;;;;;14.70;8.00;;;;;;;-147.86;100.00;3030.34;105539;1263;59730;-53
2024/01/30 09:02:44;;;;;;;13.90;8.70;;;;;;;-147.86;100.00;115.81;105544;1260;71268;-54
2024/01/30 09:05:12;;;;;;;15.20;8.40;;;;;;;-147.86;100.00;-2225.69;105592;1257;63133;-53
2024/01/30 09:07:40;;;;;;;10.50;7.00;;;;;;;-147.86;100.00;-5102.58;105566;1257;74568;-55
2024/01/30 09:10:08;;;;;;;11.70;7.10;;;;;;;-147.86;100.00;-9681.96;105609;1257;59733;-54
2024/01/30 09:12:40;;;;;;;9.50;7.00;;;;;;;-147.86;100.00;-14739.00;105543;1255;62035;-53
2024/01/30 09:15:09;;;;;;;11.80;7.70;;;;;;;-147.86;100.00;-17198.31;105555;1262;72889;-51
2024/01/30 09:17:36;;;;;;;14.10;7.60;;;;;;;-147.86;100.00;-17609.17;105557;1257;63513;-52
2024/01/30 09:20:05;;;;;;;10.50;7.20;;;;;;;-147.86;100.00;-17609.17;105519;1257;72296;-56
2024/01/30 09:22:33;;;;;;;11.70;7.80;;;;;;;-147.86;100.00;-17609.17;105587;1263;59771;-52
2024/01/30 09:25:00;;;;;;;13.60;7.70;;;;;;;-147.86;100.00;-17609.17;105604;1256;60274;-53
2024/01/30 09:27:28;;;;;;;11.20;7.00;;;;;;;-147.86;100.00;-17609.17;105612;1257;75296;-51
2024/01/30 09:29:56;;;;;;;16.80;8.00;;;;;;;-147.86;100.00;-17609.17;105527;1260;64430;-53
2024/01/30 09:32:24;;;;;;;12.90;8.40;;;;;;;-147.86;100.00;-17609.17;105542;1262;74135;-55
2024/01/30 09:34:51;;;;;;;15.00;8.70;;;;;;;-147.86;100.00;-17609.17;105580;1261;59721;-55
2024/01/30 09:37:20;;;;;;;17.60;8.70;;;;;;;-147.86;100.00;-17609.17;105538;1257;62291;-57
2024/01/30 09:39:50;;;;;;;15.00;8.70;;;;;;;-147.86;100.00;-17609.17;105610;1257;74975;-55
2024/01/30 09:42:20;;;;;;;18.10;10.10;;;;;;;-147.86;100.00;-17609.17;105521;1260;64731;-57
2024/01/30 09:44:48;;;;;;;18.30;9.60;;;;;;;-147.86;100.00;-17609.17;105530;1258;74527;-56
2024/01/30 09:47:15;;;;;;;20.70;10.80;;;;;;;-147.86;100.00;-17609.17;105309;1258;59659;-57
2024/01/30 09:49:44;;;;;;;15.40;10.20;;;;;;;-147.86;100.00;-17609.17;105516;1257;62248;-55
2024/01/30 09:52:12;;;;;;;27.60;12.00;;;;;;;-147.86;100.00;-17609.17;105565;1257;75205;-59
2024/01/30 09:54:40;;;;;;;26.30;12.60;;;;;;;-147.86;100.00;-17609.17;105609;1260;64426;-59
2024/01/30 09:57:08;;;;;;;30.10;12.70;;;;;;;-147.86;100.00;-17609.17;105557;1257;74905;-58
2024/01/30 09:59:36;;;;;;;22.30;11.80;;;;;;;-147.86;100.00;-17609.17;105572;1263;61206;-58
2024/01/30 10:02:04;;;;;;;28.80;13.40;;;;;;;-147.86;100.00;-17609.17;105580;1257;61157;-61
2024/01/30 10:04:32;;;;;;;26.50;12.10;;;;;;;-147.86;100.00;-17609.17;105599;1263;73717;-58
2024/01/30 10:07:02;;;;;;;22.50;12.10;;;;;;;-147.86;100.00;-17609.17;105495;1257;64610;-58
2024/01/30 10:09:34;;;;;;;24.10;12.40;;;;;;;-147.86;100.00;-17609.17;105577;1257;71513;-59
2024/01/30 10:12:03;;;;;;;18.50;10.70;;;;;;;-147.86;100.00;-17609.17;105561;1262;62877;-59
2024/01/30 10:14:31;;;;;;;22.10;11.60;;;;;;;-147.86;100.00;-17609.17;105558;1263;60454;-60
2024/01/30 10:16:59;;;;;;;28.60;12.50;;;;;;;-147.86;100.00;-17609.17;105533;1257;75794;-59
2024/01/30 10:19:27;;;;;;;24.60;11.70;;;;;;;-147.86;100.00;-17609.17;105582;1257;64549;-56
2024/01/30 10:21:54;;;;;;;20.30;10.20;;;;;;;-147.86;100.00;-17609.17;105535;1257;72964;-56
2024/01/30 10:24:26;;;;;;;26.20;11.10;;;;;;;-147.86;100.00;-17609.17;105549;1257;60511;-59
2024/01/30 10:26:53;;;;;;;26.60;11.40;;;;;;;-147.86;100.00;-17609.17;105562;1262;60448;-60
2024/01/30 10:29:21;;;;;;;23.00;12.10;;;;;;;-147.86;100.00;-17609.17;105535;1257;74652;-59
2024/01/30 10:32:02;;;;;;;20.10;10.30;;;;;;;-147.86;100.00;-17609.17;105557;1262;66944;-58
2024/01/30 10:34:32;;;;;;;15.60;10.30;;;;;;;-147.86;100.00;-17609.17;105547;1259;72871;-59
2024/01/30 10:37:01;;;;;;;31.20;13.10;;;;;;;-147.86;100.00;-17609.17;105597;1258;60540;-61
2024/01/30 10:39:30;;;;;;;21.80;13.00;;;;;;;-147.86;100.00;-17609.17;105578;1258;61077;-58
2024/01/30 10:42:01;;;;;;;21.20;12.90;;;;;;;-147.86;100.00;-17609.17;105567;1257;73665;-58
2024/01/30 10:44:29;;;;;;;24.80;11.60;;;;;;;-147.86;100.00;-17609.17;105541;1258;66166;-56
2024/01/30 10:47:01;;;;;;;28.30;14.40;;;;;;;-147.86;100.00;-17609.17;105564;1256;74936;-61
2024/01/30 10:49:28;;;;;;;18.30;10.90;;;;;;;-147.86;100.00;-17609.17;105501;1263;60563;-57
2024/01/30 10:51:56;;;;;;;20.90;11.60;;;;;;;-147.86;100.00;-17609.17;105503;1257;60518;-57
2024/01/30 10:54:25;;;;;;;23.00;12.20;;;;;;;-147.86;100.00;-17609.17;105525;1255;74607;-60
2024/01/30 10:56:53;;;;;;;23.70;12.20;;;;;;;-147.86;100.00;-17609.17;105655;1256;64430;-60
2024/01/30 10:59:21;;;;;;;29.40;13.40;;;;;;;-147.86;100.00;-17609.17;105646;1257;72655;-57
2024/01/30 11:01:50;;;;;;;21.90;11.60;;;;;;;-147.86;100.00;-17609.17;105545;1256;60533;-61
2024/01/30 11:04:18;;;;;;;22.00;12.10;;;;;;;-147.86;100.00;-17609.17;105525;1257;62244;-57
2024/01/30 11:06:46;;;;;;;20.40;11.80;;;;;;;-147.86;100.00;-17609.17;105630;1260;75873;-57
2024/01/30 11:09:17;;;;;;;18.80;12.20;;;;;;;-147.86;100.00;-17609.17;105285;1263;64257;-57
2024/01/30 11:12:12;;;;;;;21.80;11.00;;;;;;;-147.86;100.00;-17609.17;105619;1257;73075;-58
2024/01/30 11:14:40;;;;;;;22.60;11.70;;;;;;;-147.86;100.00;-17609.17;105617;1257;60475;-58
2024/01/30 11:17:09;;;;;;;21.90;12.80;;;;;;;-147.86;100.00;-17609.17;105633;1261;60476;-59
2024/01/30 11:19:37;;;;;;;21.00;11.00;;;;;;;-147.86;100.00;-17609.17;105669;1257;74102;-60